ADDS METAR Data INFO
IDs: Format: Raw Decoded Include TAF

Data at: 0402 UTC 19 Jul 2018

K2A0 190355Z AUTO 00000KT 10SM CLR 22/22 A2998 RMK A01
K2A0 190335Z AUTO 00000KT 10SM CLR 22/22 A2998 RMK A01
K2A0 190315Z AUTO 00000KT 10SM CLR 22/22 A2998 RMK A01
K2A0 190255Z AUTO 00000KT 10SM CLR 23/22 A2997 RMK A01
K2A0 190235Z AUTO 00000KT 10SM CLR 23/22 A2996 RMK A01
K2A0 190215Z AUTO 00000KT 10SM CLR 23/22 A2996 RMK A01
K2A0 190155Z AUTO 00000KT 10SM CLR 24/23 A2995 RMK A01
K2A0 190135Z AUTO 00000KT 10SM CLR 24/22 A2995 RMK A01
K2A0 190115Z AUTO 00000KT 10SM CLR 24/23 A2994 RMK A01
K2A0 190055Z AUTO 00000KT 10SM CLR 25/22 A2994 RMK A01
K2A0 190035Z AUTO 05003KT 10SM CLR 27/22 A2994 RMK A01
K2A0 190015Z AUTO 00000KT 10SM CLR 28/22 A2994 RMK A01
K2A0 182355Z AUTO 00000KT 10SM CLR 29/21 A2994 RMK A01
K2A0 182335Z AUTO 00000KT 10SM CLR 29/21 A2994 RMK A01
K2A0 182315Z AUTO 00000KT 10SM CLR 30/21 A2994 RMK A01
K2A0 182255Z AUTO 03003KT 10SM CLR 30/21 A2994 RMK A01
K2A0 182235Z AUTO 03005KT 10SM CLR 31/21 A2994 RMK A01
K2A0 182215Z AUTO 03004KT 10SM CLR 31/21 A2994 RMK A01
K2A0 182155Z AUTO 00000KT 10SM CLR 31/21 A2994 RMK A01
K2A0 182135Z AUTO 03005KT 10SM CLR 31/21 A2994 RMK A01
K2A0 182115Z AUTO VRB05KT 10SM CLR 31/21 A2995 RMK A01
K2A0 182055Z AUTO VRB04KT 10SM CLR 31/21 A2995 RMK A01
K2A0 182035Z AUTO VRB04KT 10SM CLR 31/20 A2996 RMK A01
K2A0 182015Z AUTO VRB04KT 10SM CLR 31/20 A2997 RMK A01
K2A0 181955Z AUTO 02004KT 10SM CLR 31/21 A2998 RMK A01
K2A0 181935Z AUTO VRB04KT 10SM CLR 31/20 A2999 RMK A01
K2A0 181915Z AUTO 02004KT 10SM CLR 31/20 A2999 RMK A01
K2A0 181855Z AUTO 05006KT 10SM CLR 30/21 A2999 RMK A01
K2A0 181835Z AUTO 02007KT 10SM CLR 30/22 A2999 RMK A01
K2A0 181815Z AUTO 02005G11KT 10SM CLR 30/22 A3000 RMK A01
K2A0 181755Z AUTO 03007KT 350V080 10SM CLR 30/22 A3000 RMK A01
K2A0 181735Z AUTO 02006G12KT 10SM CLR 30/22 A3001 RMK A01
K2A0 181715Z AUTO VRB05G10KT 10SM CLR 30/23 A3001 RMK A01
K2A0 181655Z AUTO VRB05KT 10SM CLR 29/22 A3002 RMK A01
K2A0 181635Z AUTO VRB05KT 10SM CLR 29/23 A3002 RMK A01
K2A0 181615Z AUTO VRB06KT 10SM SCT032 29/23 A3003 RMK A01
K2A0 181555Z AUTO 00000KT 10SM FEW030 28/23 A3002 RMK A01
K2A0 181535Z AUTO VRB05G11KT 10SM FEW027 28/24 A3002 RMK A01
K2A0 181515Z AUTO 01006G12KT 7SM FEW026 28/24 A3003 RMK A01
K2A0 181455Z AUTO VRB06KT 8SM CLR 28/24 A3002 RMK A01
K2A0 181435Z AUTO 02007KT 360V060 9SM CLR 27/24 A3003 RMK A01
K2A0 181415Z AUTO VRB04KT 9SM CLR 27/23 A3003 RMK A01
K2A0 181355Z AUTO 00000KT 7SM CLR 26/24 A3003 RMK A01
K2A0 181335Z AUTO VRB04KT 8SM CLR 26/24 A3003 RMK A01
K2A0 181315Z AUTO 02004KT 5SM BR CLR 25/25 A3002 RMK A01
K2A0 181255Z AUTO 00000KT 5SM BR CLR 24/24 A3002 RMK A01
K2A0 181235Z AUTO 00000KT 4SM BR CLR 24/24 A3002 RMK A01
K2A0 181215Z AUTO 00000KT 3SM BR CLR 23/23 A3002 RMK A01
K2A0 181155Z AUTO 00000KT 3SM BR CLR 23/23 A3001 RMK A01
K2A0 181135Z AUTO 00000KT 2 1/2SM BR CLR 23/23 A3000 RMK A01
K2A0 181115Z AUTO 00000KT 3SM BR CLR 22/22 A3000 RMK A01
K2A0 181055Z AUTO 00000KT 2SM BR CLR 22/22 A2999 RMK A01
K2A0 181035Z AUTO 00000KT 1 1/2SM BR CLR 22/22 A2999 RMK A01
K2A0 181015Z AUTO 00000KT 4SM BR CLR 22/22 A2998 RMK A01
K2A0 180955Z AUTO 00000KT 4SM BR CLR 22/22 A2997 RMK A01
K2A0 180935Z AUTO 00000KT 3SM BR CLR 22/22 A2997 RMK A01
K2A0 180915Z AUTO 00000KT 4SM BR CLR 23/23 A2996 RMK A01
K2A0 180855Z AUTO 00000KT 1 1/4SM BR CLR 22/22 A2996 RMK A01 VIS 3/4V2 1/2
K2A0 180835Z AUTO 00000KT 1 1/2SM BR CLR 22/22 A2996 RMK A01
K2A0 180815Z AUTO 00000KT 4SM BR CLR 22/22 A2996 RMK A01
K2A0 180755Z AUTO 00000KT 4SM BR CLR 23/22 A2996 RMK A01
K2A0 180735Z AUTO 00000KT 4SM BR CLR 23/23 A2996 RMK A01
K2A0 180715Z AUTO 00000KT 6SM BR CLR 23/23 A2996 RMK A01
K2A0 180655Z AUTO 02004KT 6SM BR CLR 23/23 A2997 RMK A01
K2A0 180635Z AUTO 00000KT 8SM CLR 23/23 A2999 RMK A01
K2A0 180615Z AUTO 00000KT 7SM SCT120 24/23 A2999 RMK A01
K2A0 180555Z AUTO 00000KT 8SM BKN120 24/23 A2999 RMK A01
K2A0 180535Z AUTO 00000KT 7SM FEW050 OVC120 24/24 A3000 RMK A01
K2A0 180515Z AUTO 21003KT 9SM FEW049 OVC110 24/24 A3002 RMK A01
K2A0 180455Z AUTO 00000KT 8SM OVC120 24/23 A3001 RMK A01
K2A0 180435Z AUTO 00000KT 6SM BR SCT100 OVC120 24/24 A3001 RMK A01
K2A0 180415Z AUTO 00000KT 10SM FEW055 OVC100 24/24 A3001 RMK A01
K2A0 180355Z AUTO 00000KT 7SM FEW055 OVC100 24/24 A3000 RMK A01
K2A0 180335Z AUTO 00000KT 10SM FEW044 SCT065 OVC100 24/24 A3000 RMK A01
K2A0 180315Z AUTO 00000KT 7SM FEW025 BKN044 OVC065 24/24 A3000 RMK A01
K2A0 180255Z AUTO 34005KT 10SM BKN046 BKN060 BKN075 24/24 A3001 RMK A01
K2A0 180235Z AUTO 00000KT 10SM FEW050 SCT065 BKN075 24/24 A2999 RMK A01
K2A0 180215Z AUTO 00000KT 9SM FEW048 SCT060 BKN070 24/24 A2998 RMK A01
K2A0 180155Z AUTO 00000KT 10SM FEW055 SCT065 OVC110 24/24 A2998 RMK A01
K2A0 180135Z AUTO 24004KT 10SM FEW060 SCT065 BKN095 24/24 A2998 RMK A01
K2A0 180115Z AUTO 00000KT 10SM FEW070 OVC095 24/24 A2997 RMK A01
K2A0 180055Z AUTO 00000KT 10SM FEW049 SCT055 BKN065 24/24 A2998 RMK A01
K2A0 180035Z AUTO 21004KT 10SM SCT049 BKN060 BKN080 25/25 A2998 RMK A01
K2A0 180015Z AUTO 23003KT 10SM FEW080 SCT090 25/25 A2998 RMK A01
K2A0 172355Z AUTO 00000KT 10SM BKN080 BKN100 25/24 A2996 RMK A01 P0019
K2A0 172335Z AUTO 00000KT 10SM FEW050 BKN075 BKN090 25/24 A2996 RMK A01
K2A0 172315Z AUTO 00000KT 5SM BR FEW002 SCT025 BKN060 24/24 A2995 RMK A01
K2A0 172255Z AUTO 35011G23KT 1/2SM FG BKN002 OVC017 25/25 A2998 RMK A01 P0028
K2A0 172235Z AUTO VRB05KT 10SM FEW037 FEW050 28/26 A2995 RMK A01
K2A0 172215Z AUTO VRB03KT 10SM FEW042 FEW050 FEW060 28/26 A2994 RMK A01
K2A0 172155Z AUTO 00000KT 10SM FEW043 FEW060 28/26 A2995 RMK A01
K2A0 172135Z AUTO 13005KT 10SM CLR 27/26 A2995 RMK A01
K2A0 172115Z AUTO 14006KT 10SM FEW024 BKN039 BKN050 27/26 A2995 RMK A01
K2A0 172055Z AUTO VRB06KT 2SM BR FEW024 BKN039 OVC050 26/26 A2997 RMK A01 P0011
K2A0 172035Z AUTO 16008KT 10SM SCT048 BKN055 BKN065 29/25 A2995 RMK A01
K2A0 172015Z AUTO 20007KT 10SM FEW050 FEW060 30/26 A2995 RMK A01
K2A0 171955Z AUTO VRB05KT 10SM FEW050 FEW120 31/27 A2995 RMK A01 P0001
K2A0 171935Z AUTO 19004KT 10SM FEW018 FEW120 30/26 A2995 RMK A01
K2A0 171915Z AUTO 21008G19KT 10SM FEW018 FEW120 29/26 A2996 RMK A01
K2A0 171855Z AUTO 00000KT 10SM FEW037 FEW060 SCT110 29/27 A2996 RMK A01 P0017
K2A0 171835Z AUTO 00000KT 9SM FEW021 SCT039 BKN065 27/26 A2996 RMK A01
K2A0 171815Z AUTO 06005KT 3SM BR FEW022 SCT038 BKN055 27/27 A2997 RMK A01
K2A0 171755Z AUTO 00000KT 3SM HZ FEW023 FEW036 SCT060 29/27 A2998 RMK A01
K2A0 171735Z AUTO VRB04KT 10SM SCT110 30/27 A2999 RMK A01
K2A0 171715Z AUTO 21007KT 10SM SCT090 SCT110 30/27 A3000 RMK A01
K2A0 171655Z AUTO VRB05KT 10SM BKN090 29/26 A3000 RMK A01
K2A0 171635Z AUTO VRB04KT 10SM FEW020 SCT080 BKN100 30/25 A3001 RMK A01
K2A0 171615Z AUTO 21005KT 10SM FEW020 BKN080 BKN100 30/26 A3001 RMK A01